Addis Ababa, Ethiopia

10:59 AM EAT on May 05, 2015 (GMT +0300)
Bole International | | Change Station
CLOSE
Current Station
Airport
Location: Addis Ababa,
Elevation: 7726 ft
Nearby Weather Stations

Elev 7726 ft 8.98 °N, 38.80 °E | Updated 59 minutes ago

Partly Cloudy
Partly Cloudy
68 °F
Feels Like 68 °F
N
7
Wind Variable Wind from SSE

Today
High -- | Low -- °F
--% Chance of Precip.
Yesterday
High -- | Low -- °F
Precip. -- in
6:07 AM 6:35 PM
Full, 99% visible
Pressure 30.36 in
Visibility 6.2 miles
Clouds Mostly Cloudy 2500 ft
Few 8000 ft
Dew Point 54 °F
Humidity 60%
Rainfall 0.00 in
Snow Depth Not available.
UV 12 out of 12
Pollen Not available.
Air Quality Not available.
Flu Activity Not available.
METAR HAAB 050700Z 15006KT 9999 BKN025 FEW080 20/12 Q1028

More Conditions Fewer Conditions

Pressure 30.36 in
Visibility 6.2 miles
Clouds Mostly Cloudy 2500 ft
Few 8000 ft
Dew Point 54 °F
Humidity 60%
Rainfall 0.00 in
Snow Depth Not available.
UV 12 out of 12
Pollen Not available.
Air Quality Not available.
Flu Activity Not available.
METAR HAAB 050700Z 15006KT 9999 BKN025 FEW080 20/12 Q1028

More Conditions Fewer Conditions

10-Day Weather Forecast

Almanac

Astronomy

May. 05, 2015 Rise Set
Actual Time
Civil Twilight
Nautical Twilight
Astronomical Twilight
Moon
Length of Visible Light
Length of Day
Tomorrow will be .
, % of the Moon is Illuminated

Today's Extremes

Country Highs Country Lows

Community

WunderPhotos

Upload Photos

1,818,814 photos uploaded!

WunderBlogs® & News

Nearby

Air Quality

  Air Quality AQ Index Pollutant
Not available.

Snow Depth

Station Depth Elevation

Earthquake Activity

City Distance Mag. Time & Date
Minimum magnitude displayed is 2.5.

Coastal Water Temperatures

Place Temperature

Stations

Nearby Weather Stations

Station Location Temp. Windchill Dew Point Humidity Wind Precip. Elev Updated Type